AEE2KL LGAV-LGKL
Flight info
| Callsign | AEE2KL |
|---|---|
| Flight time | 0h 33m |
| Altitude | 23000 |
| Route | DDM Y115 IPTAG |
| Aircraft | A320/M-SDE3FGHIRWY/LB1 |
Departure
| Time | 2026-05-04 17:21 |
|---|---|
| Airport | Athens Eleftherios Venizelos International Airport (LGAV) |
Arrival
| Time | 2026-05-04 17:54 |
|---|---|
| Airport | Kalamata Airport (LGKL) |
| Time | Latitude | Longitude | Altitude | Speed | Heading |
|---|---|---|---|---|---|
| 2026-05-04 16:50 | 37.93108 | 23.94190 | 301 ft | 0 kts | 37° |
| 2026-05-04 17:14 | 37.93064 | 23.94148 | 301 ft | 4 kts | 38° |
| 2026-05-04 17:14 | 37.93044 | 23.94124 | 302 ft | 4 kts | 58° |
| 2026-05-04 17:14 | 37.93041 | 23.94090 | 300 ft | 1 kts | 127° |
| 2026-05-04 17:16 | 37.93026 | 23.94115 | 301 ft | 5 kts | 127° |
| 2026-05-04 17:17 | 37.92995 | 23.94168 | 301 ft | 9 kts | 127° |
| 2026-05-04 17:17 | 37.92893 | 23.94337 | 301 ft | 9 kts | 127° |
| 2026-05-04 17:18 | 37.92852 | 23.94407 | 301 ft | 6 kts | 126° |
| 2026-05-04 17:18 | 37.92741 | 23.94419 | 304 ft | 12 kts | 217° |
| 2026-05-04 17:19 | 37.92608 | 23.94295 | 305 ft | 13 kts | 208° |
| 2026-05-04 17:19 | 37.92510 | 23.94371 | 307 ft | 7 kts | 127° |
| 2026-05-04 17:20 | 37.92520 | 23.94486 | 309 ft | 12 kts | 37° |
| 2026-05-04 17:20 | 37.93015 | 23.94956 | 296 ft | 116 kts | 37° |
| 2026-05-04 17:20 | 37.93849 | 23.95756 | 301 ft | 180 kts | 39° |
| 2026-05-04 17:21 | 37.95810 | 23.97627 | 2138 ft | 175 kts | 34° |
| 2026-05-04 17:21 | 37.97888 | 23.99614 | 2905 ft | 209 kts | 34° |
| 2026-05-04 17:22 | 37.99120 | 24.00790 | 3309 ft | 232 kts | 34° |
| 2026-05-04 17:22 | 38.00433 | 24.02047 | 4093 ft | 239 kts | 34° |
| 2026-05-04 17:23 | 38.05032 | 24.04492 | 6554 ft | 254 kts | 348° |
| 2026-05-04 17:23 | 38.06647 | 24.03579 | 7400 ft | 259 kts | 322° |
| 2026-05-04 17:23 | 38.07992 | 23.99369 | 9072 ft | 281 kts | 265° |
| 2026-05-04 17:24 | 38.07287 | 23.97011 | 9904 ft | 292 kts | 244° |
| 2026-05-04 17:24 | 38.04016 | 23.89693 | 10922 ft | 352 kts | 243° |
| 2026-05-04 17:25 | 38.02780 | 23.86938 | 11050 ft | 374 kts | 243° |
| 2026-05-04 17:25 | 38.00100 | 23.80950 | 11660 ft | 401 kts | 243° |
| 2026-05-04 17:26 | 37.97314 | 23.74723 | 12789 ft | 411 kts | 243° |
| 2026-05-04 17:26 | 37.93005 | 23.65103 | 14515 ft | 424 kts | 242° |
| 2026-05-04 17:27 | 37.90068 | 23.58567 | 15619 ft | 429 kts | 242° |
| 2026-05-04 17:27 | 37.87116 | 23.52006 | 16709 ft | 434 kts | 242° |
| 2026-05-04 17:28 | 37.84110 | 23.45336 | 17790 ft | 438 kts | 242° |
| 2026-05-04 17:29 | 37.79545 | 23.35220 | 19313 ft | 444 kts | 242° |
| 2026-05-04 17:29 | 37.74905 | 23.24966 | 20657 ft | 452 kts | 242° |
| 2026-05-04 17:30 | 37.70174 | 23.14553 | 21853 ft | 459 kts | 243° |
| 2026-05-04 17:31 | 37.66990 | 23.07573 | 22554 ft | 464 kts | 246° |
| 2026-05-04 17:31 | 37.62115 | 22.96923 | 23633 ft | 470 kts | 246° |
| 2026-05-04 17:32 | 37.58821 | 22.89739 | 24094 ft | 474 kts | 246° |
| 2026-05-04 17:33 | 37.53835 | 22.78892 | 24132 ft | 478 kts | 246° |
| 2026-05-04 17:33 | 37.52166 | 22.75270 | 24130 ft | 477 kts | 246° |
| 2026-05-04 17:34 | 37.47204 | 22.64514 | 24133 ft | 475 kts | 246° |
| 2026-05-04 17:34 | 37.45542 | 22.60919 | 24133 ft | 475 kts | 246° |
| 2026-05-04 17:35 | 37.41797 | 22.49662 | 24127 ft | 457 kts | 266° |
| 2026-05-04 17:35 | 37.41015 | 22.41798 | 24106 ft | 455 kts | 265° |
| 2026-05-04 17:35 | 37.40143 | 22.37928 | 24110 ft | 464 kts | 255° |
| 2026-05-04 17:36 | 37.38688 | 22.34271 | 24102 ft | 473 kts | 244° |
| 2026-05-04 17:36 | 37.36668 | 22.30957 | 24107 ft | 483 kts | 233° |
| 2026-05-04 17:36 | 37.34133 | 22.28128 | 24113 ft | 492 kts | 223° |
| 2026-05-04 17:36 | 37.31390 | 22.25550 | 24112 ft | 492 kts | 223° |
| 2026-05-04 17:37 | 37.28694 | 22.23002 | 24113 ft | 491 kts | 223° |
| 2026-05-04 17:37 | 37.25997 | 22.20359 | 24115 ft | 491 kts | 224° |
| 2026-05-04 17:37 | 37.23341 | 22.17677 | 24119 ft | 490 kts | 225° |
| 2026-05-04 17:37 | 37.20674 | 22.15061 | 24092 ft | 475 kts | 223° |
| 2026-05-04 17:38 | 37.18103 | 22.12687 | 23835 ft | 445 kts | 222° |
| 2026-05-04 17:38 | 37.15661 | 22.10525 | 23691 ft | 415 kts | 222° |
| 2026-05-04 17:38 | 37.13365 | 22.08519 | 23528 ft | 390 kts | 223° |
| 2026-05-04 17:38 | 37.11184 | 22.06595 | 22994 ft | 377 kts | 223° |
| 2026-05-04 17:39 | 37.06678 | 22.03368 | 21586 ft | 381 kts | 199° |
| 2026-05-04 17:39 | 37.04024 | 22.03076 | 20886 ft | 388 kts | 177° |
| 2026-05-04 17:39 | 37.01370 | 22.03650 | 20140 ft | 387 kts | 172° |
| 2026-05-04 17:40 | 36.98770 | 22.04303 | 19449 ft | 384 kts | 171° |
| 2026-05-04 17:40 | 36.96168 | 22.04972 | 18791 ft | 380 kts | 171° |
| 2026-05-04 17:40 | 36.93587 | 22.05632 | 18115 ft | 376 kts | 171° |
| 2026-05-04 17:40 | 36.91029 | 22.06254 | 17413 ft | 372 kts | 172° |
| 2026-05-04 17:41 | 36.88501 | 22.06844 | 16740 ft | 367 kts | 172° |
| 2026-05-04 17:41 | 36.85952 | 22.07036 | 15576 ft | 370 kts | 191° |
| 2026-05-04 17:41 | 36.83547 | 22.06073 | 14836 ft | 353 kts | 216° |
| 2026-05-04 17:41 | 36.81544 | 22.04497 | 14634 ft | 331 kts | 219° |
| 2026-05-04 17:42 | 36.79644 | 22.02918 | 14086 ft | 326 kts | 220° |
| 2026-05-04 17:42 | 36.77862 | 22.01221 | 13431 ft | 318 kts | 228° |
| 2026-05-04 17:42 | 36.76109 | 21.99528 | 12768 ft | 318 kts | 223° |
| 2026-05-04 17:42 | 36.74585 | 21.97618 | 12133 ft | 306 kts | 237° |
| 2026-05-04 17:43 | 36.73275 | 21.95535 | 11513 ft | 303 kts | 240° |
| 2026-05-04 17:43 | 36.72202 | 21.93325 | 10896 ft | 296 kts | 248° |
| 2026-05-04 17:43 | 36.71441 | 21.90994 | 10299 ft | 287 kts | 259° |
| 2026-05-04 17:43 | 36.70793 | 21.88641 | 9660 ft | 289 kts | 251° |
| 2026-05-04 17:44 | 36.70133 | 21.86348 | 9032 ft | 280 kts | 266° |
| 2026-05-04 17:44 | 36.70170 | 21.84002 | 8449 ft | 267 kts | 288° |
| 2026-05-04 17:44 | 36.70863 | 21.81913 | 7834 ft | 258 kts | 307° |
| 2026-05-04 17:44 | 36.72048 | 21.80348 | 7571 ft | 240 kts | 325° |
| 2026-05-04 17:45 | 36.73482 | 21.79393 | 7187 ft | 232 kts | 342° |
| 2026-05-04 17:45 | 36.75060 | 21.79075 | 6715 ft | 230 kts | 1° |
| 2026-05-04 17:45 | 36.76588 | 21.79555 | 6447 ft | 229 kts | 24° |
| 2026-05-04 17:45 | 36.77808 | 21.80868 | 5862 ft | 239 kts | 54° |
| 2026-05-04 17:46 | 36.78414 | 21.82817 | 5301 ft | 245 kts | 71° |
| 2026-05-04 17:46 | 36.78845 | 21.84882 | 4762 ft | 245 kts | 72° |
| 2026-05-04 17:46 | 36.79270 | 21.86939 | 4228 ft | 245 kts | 72° |
| 2026-05-04 17:46 | 36.79693 | 21.88990 | 3843 ft | 240 kts | 71° |
| 2026-05-04 17:47 | 36.80094 | 21.90951 | 3547 ft | 231 kts | 71° |
| 2026-05-04 17:47 | 36.80497 | 21.92894 | 3088 ft | 229 kts | 71° |
| 2026-05-04 17:47 | 36.80905 | 21.94846 | 3007 ft | 235 kts | 71° |
| 2026-05-04 17:47 | 36.81308 | 21.96781 | 3011 ft | 228 kts | 72° |
| 2026-05-04 17:48 | 36.81696 | 21.98661 | 3012 ft | 221 kts | 71° |
| 2026-05-04 17:48 | 36.82080 | 22.00502 | 3012 ft | 220 kts | 71° |
| 2026-05-04 17:48 | 36.82467 | 22.02344 | 3012 ft | 220 kts | 71° |
| 2026-05-04 17:48 | 36.82951 | 22.04149 | 3014 ft | 217 kts | 58° |
| 2026-05-04 17:49 | 36.83837 | 22.05632 | 3014 ft | 211 kts | 39° |
| 2026-05-04 17:49 | 36.85036 | 22.06639 | 3011 ft | 207 kts | 19° |
| 2026-05-04 17:49 | 36.86406 | 22.07092 | 3011 ft | 203 kts | 1° |
| 2026-05-04 17:49 | 36.87800 | 22.06970 | 3011 ft | 200 kts | 347° |
| 2026-05-04 17:50 | 36.89169 | 22.06650 | 3011 ft | 197 kts | 348° |
| 2026-05-04 17:50 | 36.90475 | 22.06348 | 2958 ft | 188 kts | 348° |
| 2026-05-04 17:50 | 36.91732 | 22.06056 | 2783 ft | 184 kts | 347° |
| 2026-05-04 17:50 | 36.92982 | 22.05766 | 2548 ft | 182 kts | 347° |
| 2026-05-04 17:51 | 36.94224 | 22.05477 | 2316 ft | 182 kts | 346° |
| 2026-05-04 17:51 | 36.95469 | 22.05187 | 2075 ft | 179 kts | 346° |
| 2026-05-04 17:51 | 36.96645 | 22.04915 | 1848 ft | 165 kts | 346° |
| 2026-05-04 17:51 | 36.97714 | 22.04667 | 1623 ft | 149 kts | 346° |
| 2026-05-04 17:52 | 36.98685 | 22.04440 | 1429 ft | 138 kts | 346° |
| 2026-05-04 17:52 | 36.99598 | 22.04203 | 1241 ft | 133 kts | 347° |
| 2026-05-04 17:52 | 37.00504 | 22.04001 | 1088 ft | 131 kts | 349° |
| 2026-05-04 17:52 | 37.01408 | 22.03802 | 905 ft | 132 kts | 349° |
| 2026-05-04 17:53 | 37.02299 | 22.03587 | 734 ft | 129 kts | 351° |
| 2026-05-04 17:53 | 37.03177 | 22.03383 | 521 ft | 130 kts | 351° |
| 2026-05-04 17:53 | 37.04073 | 22.03194 | 408 ft | 130 kts | 349° |
| 2026-05-04 17:53 | 37.04953 | 22.02982 | 212 ft | 129 kts | 350° |
| 2026-05-04 17:54 | 37.05842 | 22.02771 | 41 ft | 128 kts | 351° |
| 2026-05-04 17:54 | 37.06582 | 22.02601 | 33 ft | 84 kts | 349° |
| 2026-05-04 17:54 | 37.06991 | 22.02505 | 34 ft | 37 kts | 349° |
| 2026-05-04 17:54 | 37.07160 | 22.02480 | 32 ft | 15 kts | 18° |
| 2026-05-04 17:55 | 37.07169 | 22.02584 | 31 ft | 12 kts | 142° |
| 2026-05-04 17:55 | 37.07080 | 22.02610 | 32 ft | 14 kts | 169° |
| 2026-05-04 17:55 | 37.06977 | 22.02634 | 34 ft | 16 kts | 169° |
| 2026-05-04 17:55 | 37.06857 | 22.02662 | 34 ft | 19 kts | 169° |
| 2026-05-04 17:56 | 37.06720 | 22.02694 | 34 ft | 21 kts | 169° |
| 2026-05-04 17:56 | 37.06566 | 22.02730 | 33 ft | 24 kts | 169° |
| 2026-05-04 17:56 | 37.06396 | 22.02770 | 34 ft | 26 kts | 169° |
| 2026-05-04 17:56 | 37.06211 | 22.02813 | 34 ft | 29 kts | 169° |
| 2026-05-04 17:57 | 37.06018 | 22.02858 | 34 ft | 26 kts | 169° |
| 2026-05-04 17:57 | 37.05848 | 22.02898 | 34 ft | 26 kts | 169° |
| 2026-05-04 17:57 | 37.05662 | 22.02941 | 33 ft | 28 kts | 169° |
| 2026-05-04 17:57 | 37.05567 | 22.02969 | 34 ft | 11 kts | 147° |
| 2026-05-04 17:58 | 37.05534 | 22.03069 | 35 ft | 14 kts | 105° |
| 2026-05-04 17:58 | 37.05511 | 22.03175 | 35 ft | 12 kts | 106° |
| 2026-05-04 17:58 | 37.05487 | 22.03274 | 35 ft | 11 kts | 86° |
| 2026-05-04 17:58 | 37.05473 | 22.03334 | 35 ft | 0 kts | 118° |
| 2026-05-04 17:59 | 37.05467 | 22.03346 | 34 ft | 2 kts | 122° |
| 2026-05-04 17:59 | 37.05462 | 22.03356 | 35 ft | 0 kts | 123° |